createdAt,value
2016-06-10T00:00:48.349Z,0
2016-06-10T00:01:48.367Z,0
2016-06-10T00:02:48.370Z,0
2016-06-10T00:03:48.748Z,0
2016-06-10T00:04:48.814Z,0
2016-06-10T00:05:48.552Z,0
2016-06-10T00:06:48.413Z,0
2016-06-10T00:07:48.730Z,0
2016-06-10T00:08:48.077Z,0
2016-06-10T00:09:50.017Z,0
2016-06-10T00:10:48.395Z,0
2016-06-10T00:11:48.711Z,0
2016-06-10T00:12:48.401Z,0
2016-06-10T00:13:48.420Z,0
2016-06-10T00:14:48.407Z,0
2016-06-10T00:15:48.426Z,0
2016-06-10T00:16:48.444Z,0
2016-06-10T00:17:48.433Z,0
2016-06-10T00:18:49.045Z,0
2016-06-10T00:19:48.453Z,0
2016-06-10T00:20:48.753Z,0
2016-06-10T00:21:48.539Z,0
2016-06-10T00:22:48.963Z,0
2016-06-10T00:23:48.465Z,0
2016-06-10T00:24:48.173Z,0
2016-06-10T00:25:48.488Z,0
2016-06-10T00:26:48.491Z,0
2016-06-10T00:27:48.478Z,0
2016-06-10T00:28:48.481Z,0
2016-06-10T00:29:49.609Z,0
2016-06-10T00:30:48.503Z,0
2016-06-10T00:31:49.397Z,0
2016-06-10T00:32:48.509Z,0
2016-06-10T00:33:48.512Z,0
2016-06-10T00:34:48.375Z,0
2016-06-10T00:35:48.550Z,0
2016-06-10T00:36:48.538Z,0
2016-06-10T00:37:48.541Z,0
2016-06-10T00:38:48.544Z,0
2016-06-10T00:39:48.484Z,0
2016-06-10T00:40:49.284Z,0
2016-06-10T00:41:48.568Z,0
2016-06-10T00:42:49.649Z,0
2016-06-10T00:43:48.575Z,0
2016-06-10T00:44:48.577Z,0
2016-06-10T00:45:48.580Z,0
2016-06-10T00:46:48.584Z,0
2016-06-10T00:47:48.603Z,0
2016-06-10T00:48:48.606Z,0
2016-06-10T00:49:48.608Z,0
2016-06-10T00:50:48.612Z,0
2016-06-10T00:51:49.552Z,0
2016-06-10T00:52:48.618Z,0
2016-06-10T00:53:49.371Z,0
2016-06-10T00:54:48.858Z,0
2016-06-10T00:55:48.627Z,0
2016-06-10T00:56:48.630Z,0
2016-06-10T00:57:48.617Z,0
2016-06-10T00:58:48.636Z,0
2016-06-10T00:59:48.656Z,0
2016-06-10T01:00:48.643Z,0
2016-06-10T01:01:48.662Z,0
2016-06-10T01:02:48.743Z,0
2016-06-10T01:03:48.652Z,0
2016-06-10T01:04:49.827Z,0
2016-06-10T01:05:48.658Z,0
2016-06-10T01:06:48.817Z,0
2016-06-10T01:07:48.664Z,0
2016-06-10T01:08:48.667Z,0
2016-06-10T01:09:48.686Z,0
2016-06-10T01:10:49.111Z,0
2016-06-10T01:11:48.786Z,0
2016-06-10T01:12:48.524Z,0
2016-06-10T01:13:49.245Z,0
2016-06-10T01:14:48.702Z,0
2016-06-10T01:15:49.470Z,0
2016-06-10T01:16:48.692Z,0
2016-06-10T01:17:49.351Z,0
2016-06-10T01:18:48.714Z,0
2016-06-10T01:19:48.701Z,0
2016-06-10T01:20:48.705Z,0
2016-06-10T01:21:48.723Z,0
2016-06-10T01:22:48.710Z,0
2016-06-10T01:23:48.729Z,0
2016-06-10T01:24:50.045Z,0
2016-06-10T01:25:48.828Z,0
2016-06-10T01:26:49.957Z,0
2016-06-10T01:27:48.725Z,0
2016-06-10T01:28:49.729Z,0
2016-06-10T01:29:48.747Z,0
2016-06-10T01:30:48.751Z,0
2016-06-10T01:31:48.784Z,0
2016-06-10T01:32:48.741Z,0
2016-06-10T01:33:48.760Z,0
2016-06-10T01:34:48.606Z,0
2016-06-10T01:35:49.375Z,0
2016-06-10T01:36:48.770Z,0
2016-06-10T01:37:50.381Z,0
2016-06-10T01:38:48.775Z,0
2016-06-10T01:39:50.122Z,0
2016-06-10T01:40:48.469Z,0
2016-06-10T01:41:48.784Z,0
2016-06-10T01:42:48.788Z,0
2016-06-10T01:43:48.791Z,0
2016-06-10T01:44:48.794Z,0
2016-06-10T01:45:48.797Z,0
2016-06-10T01:46:48.659Z,0
2016-06-10T01:47:48.803Z,0
2016-06-10T01:48:49.337Z,0
2016-06-10T01:49:48.809Z,0
2016-06-10T01:50:49.780Z,0
2016-06-10T01:51:48.675Z,0
2016-06-10T01:52:48.803Z,0
2016-06-10T01:53:48.821Z,0
2016-06-10T01:54:49.012Z,0
2016-06-10T01:55:49.499Z,0
2016-06-10T01:56:48.830Z,0
2016-06-10T01:57:48.990Z,0
2016-06-10T01:58:48.837Z,0
2016-06-10T01:59:49.480Z,0
2016-06-10T02:00:48.858Z,0
2016-06-10T02:01:50.049Z,0
2016-06-10T02:02:48.692Z,0
2016-06-10T02:03:48.836Z,0
2016-06-10T02:04:48.901Z,0
2016-06-10T02:05:48.843Z,0
2016-06-10T02:06:48.861Z,0
2016-06-10T02:07:48.708Z,0
2016-06-10T02:08:48.852Z,0
2016-06-10T02:09:48.854Z,0
2016-06-10T02:10:51.327Z,0
2016-06-10T02:11:48.969Z,0
2016-06-10T02:12:49.614Z,0
2016-06-10T02:13:48.867Z,0
2016-06-10T02:14:48.729Z,0
2016-06-10T02:15:48.889Z,0
2016-06-10T02:16:48.892Z,0
2016-06-10T02:17:48.896Z,0
2016-06-10T02:18:48.882Z,0
2016-06-10T02:19:48.947Z,0
2016-06-10T02:20:48.904Z,0
2016-06-10T02:21:49.391Z,0
2016-06-10T02:22:48.911Z,0
2016-06-10T02:23:49.897Z,0
2016-06-10T02:24:49.245Z,0
2016-06-10T02:25:48.982Z,0
2016-06-10T02:26:48.938Z,0
2016-06-10T02:27:48.926Z,0
2016-06-10T02:28:48.929Z,0
2016-06-10T02:29:48.932Z,0
2016-06-10T02:30:48.936Z,0
2016-06-10T02:31:48.938Z,0
2016-06-10T02:32:49.784Z,0
2016-06-10T02:33:48.945Z,0
2016-06-10T02:34:50.182Z,0
2016-06-10T02:35:48.950Z,0
2016-06-10T02:36:48.953Z,0
2016-06-10T02:37:48.973Z,0
2016-06-10T02:38:49.014Z,0
2016-06-10T02:39:49.054Z,0
2016-06-10T02:40:50.220Z,0
2016-06-10T02:41:49.136Z,0
2016-06-10T02:42:49.167Z,0
2016-06-10T02:43:49.854Z,0
2016-06-10T02:44:49.184Z,0
2016-06-10T02:45:49.201Z,0
2016-06-10T02:46:49.218Z,0
2016-06-10T02:47:49.746Z,0
2016-06-10T02:48:49.254Z,0
2016-06-10T02:49:49.263Z,0
2016-06-10T02:50:49.270Z,0
2016-06-10T02:51:49.106Z,0
2016-06-10T02:52:49.284Z,0
2016-06-10T02:53:49.289Z,0
2016-06-10T02:54:51.340Z,0
2016-06-10T02:55:49.299Z,0
2016-06-10T02:56:50.382Z,0
2016-06-10T02:57:49.309Z,0
2016-06-10T02:58:50.421Z,0
2016-06-10T02:59:49.316Z,0
2016-06-10T03:00:49.304Z,0
2016-06-10T03:01:49.308Z,0
2016-06-10T03:02:49.312Z,0
2016-06-10T03:03:49.330Z,0
2016-06-10T03:04:49.379Z,0
2016-06-10T03:05:50.290Z,0
2016-06-10T03:06:49.323Z,0
2016-06-10T03:07:49.718Z,0
2016-06-10T03:08:49.330Z,0
2016-06-10T03:09:50.114Z,0
2016-06-10T03:10:49.930Z,0
2016-06-10T03:11:49.495Z,0
2016-06-10T03:12:49.389Z,0
2016-06-10T03:13:49.376Z,0
2016-06-10T03:14:49.365Z,0
2016-06-10T03:15:49.351Z,0
2016-06-10T03:16:49.338Z,0
2016-06-10T03:17:49.358Z,0
2016-06-10T03:18:51.422Z,0
2016-06-10T03:19:49.363Z,0
2016-06-10T03:20:50.022Z,0
2016-06-10T03:21:49.354Z,0
2016-06-10T03:22:49.357Z,0
2016-06-10T03:23:49.359Z,0
2016-06-10T03:24:49.363Z,0
2016-06-10T03:25:49.398Z,0
2016-06-10T03:26:49.369Z,0
2016-06-10T03:27:49.232Z,0
2016-06-10T03:28:49.219Z,0
2016-06-10T03:29:49.925Z,5
2016-06-10T03:30:49.382Z,5
2016-06-10T03:31:50.447Z,5
2016-06-10T03:32:49.387Z,5
2016-06-10T03:33:49.391Z,5
2016-06-10T03:34:49.378Z,5
2016-06-10T03:35:49.396Z,5
2016-06-10T03:36:49.228Z,5
2016-06-10T03:37:49.388Z,5
2016-06-10T03:38:49.391Z,5
2016-06-10T03:39:49.753Z,5
2016-06-10T03:40:52.459Z,5
2016-06-10T03:41:49.400Z,5
2016-06-10T03:42:49.919Z,10
2016-06-10T03:43:49.406Z,10
2016-06-10T03:44:49.410Z,10
2016-06-10T03:45:49.413Z,10
2016-06-10T03:46:49.430Z,10
2016-06-10T03:47:49.450Z,10
2016-06-10T03:48:49.422Z,10
2016-06-10T03:49:49.425Z,10
2016-06-10T03:50:49.428Z,10
2016-06-10T03:51:50.024Z,10
2016-06-10T03:52:49.418Z,10
2016-06-10T03:53:50.484Z,10
2016-06-10T03:54:49.424Z,15
2016-06-10T03:55:50.818Z,15
2016-06-10T03:56:49.431Z,15
2016-06-10T03:57:49.434Z,15
2016-06-10T03:58:49.296Z,15
2016-06-10T03:59:49.439Z,15
2016-06-10T04:00:49.443Z,15
2016-06-10T04:01:49.446Z,15
2016-06-10T04:02:50.245Z,15
2016-06-10T04:03:49.452Z,15
2016-06-10T04:04:50.564Z,15
2016-06-10T04:05:49.505Z,15
2016-06-10T04:06:49.945Z,15
2016-06-10T04:07:49.511Z,15
2016-06-10T04:08:49.451Z,15
2016-06-10T04:09:49.454Z,15
2016-06-10T04:10:50.270Z,15
2016-06-10T04:11:49.476Z,15
2016-06-10T04:12:49.464Z,15
2016-06-10T04:13:49.561Z,15
2016-06-10T04:14:49.516Z,15
2016-06-10T04:15:50.145Z,20
2016-06-10T04:16:49.460Z,20
2016-06-10T04:17:50.604Z,20
2016-06-10T04:18:49.467Z,20
2016-06-10T04:19:49.860Z,25
2016-06-10T04:20:49.473Z,25
2016-06-10T04:21:49.461Z,25
2016-06-10T04:22:49.323Z,30
2016-06-10T04:23:49.467Z,30
2016-06-10T04:24:49.469Z,30
2016-06-10T04:25:49.754Z,30
2016-06-10T04:26:50.414Z,30
2016-06-10T04:27:49.479Z,30
2016-06-10T04:28:49.685Z,35
2016-06-10T04:29:49.485Z,35
2016-06-10T04:30:50.191Z,35
2016-06-10T04:31:49.366Z,35
2016-06-10T04:32:49.494Z,35
2016-06-10T04:33:49.341Z,35
2016-06-10T04:34:49.500Z,35
2016-06-10T04:35:49.488Z,35
2016-06-10T04:36:49.506Z,35
2016-06-10T04:37:50.056Z,30
2016-06-10T04:38:49.497Z,35
2016-06-10T04:39:50.640Z,35
2016-06-10T04:40:50.065Z,35
2016-06-10T04:41:50.069Z,35
2016-06-10T04:42:49.509Z,40
2016-06-10T04:43:49.513Z,40
2016-06-10T04:44:49.375Z,40
2016-06-10T04:45:49.519Z,40
2016-06-10T04:46:49.506Z,40
2016-06-10T04:47:49.509Z,40
2016-06-10T04:48:49.528Z,40
2016-06-10T04:49:49.359Z,35
2016-06-10T04:50:50.080Z,35
2016-06-10T04:51:49.537Z,35
2016-06-10T04:52:50.650Z,35
2016-06-10T04:53:49.527Z,30
2016-06-10T04:54:49.531Z,30
2016-06-10T04:55:50.174Z,30
2016-06-10T04:56:49.553Z,30
2016-06-10T04:57:49.540Z,30
2016-06-10T04:58:49.543Z,25
2016-06-10T04:59:49.546Z,25
2016-06-10T05:00:49.549Z,25
2016-06-10T05:01:50.708Z,30
2016-06-10T05:02:49.540Z,30
2016-06-10T05:03:50.636Z,30
2016-06-10T05:04:49.561Z,30
2016-06-10T05:05:49.392Z,30
2016-06-10T05:06:49.552Z,35
2016-06-10T05:07:49.570Z,35
2016-06-10T05:08:49.573Z,35
2016-06-10T05:09:49.577Z,35
2016-06-10T05:10:49.846Z,35
2016-06-10T05:11:49.582Z,40
2016-06-10T05:12:49.617Z,40
2016-06-10T05:13:49.730Z,50
2016-06-10T05:14:50.248Z,55
2016-06-10T05:15:49.579Z,60
2016-06-10T05:16:50.676Z,65
2016-06-10T05:17:49.585Z,65
2016-06-10T05:18:49.573Z,60
2016-06-10T05:19:49.577Z,60
2016-06-10T05:20:49.580Z,65
2016-06-10T05:21:49.613Z,70
2016-06-10T05:22:49.586Z,75
2016-06-10T05:23:49.839Z,80
2016-06-10T05:24:49.435Z,90
2016-06-10T05:25:50.704Z,90
2016-06-10T05:26:49.895Z,90
2016-06-10T05:27:49.601Z,90
2016-06-10T05:28:49.604Z,95
2016-06-10T05:29:49.607Z,100
2016-06-10T05:30:49.610Z,105
2016-06-10T05:31:49.456Z,105
2016-06-10T05:32:49.616Z,105
2016-06-10T05:33:49.462Z,105
2016-06-10T05:34:49.763Z,105
2016-06-10T05:35:49.469Z,105
2016-06-10T05:36:50.426Z,105
2016-06-10T05:37:49.632Z,110
2016-06-10T05:38:49.650Z,105
2016-06-10T05:39:49.981Z,105
2016-06-10T05:40:49.891Z,95
2016-06-10T05:41:49.925Z,90
2016-06-10T05:42:49.631Z,85
2016-06-10T05:43:49.651Z,80
2016-06-10T05:44:50.231Z,75
2016-06-10T05:45:50.046Z,70
2016-06-10T05:46:49.643Z,70
2016-06-10T05:47:50.584Z,65
2016-06-10T05:48:49.650Z,65
2016-06-10T05:49:49.762Z,65
2016-06-10T05:50:49.656Z,65
2016-06-10T05:51:49.658Z,65
2016-06-10T05:52:49.662Z,65
2016-06-10T05:53:49.665Z,60
2016-06-10T05:54:49.668Z,60
2016-06-10T05:55:49.765Z,55
2016-06-10T05:56:49.674Z,55
2016-06-10T05:57:49.677Z,55
2016-06-10T05:58:50.509Z,55
2016-06-10T05:59:49.528Z,50
2016-06-10T06:00:51.655Z,50
2016-06-10T06:01:49.673Z,50
2016-06-10T06:02:50.161Z,50
2016-06-10T06:03:49.680Z,45
2016-06-10T06:04:49.699Z,45
2016-06-10T06:05:49.685Z,45
2016-06-10T06:06:49.689Z,45
2016-06-10T06:07:49.536Z,45
2016-06-10T06:08:49.695Z,45
2016-06-10T06:09:50.605Z,50
2016-06-10T06:10:49.733Z,50
2016-06-10T06:11:49.861Z,50
2016-06-10T06:12:49.707Z,50
2016-06-10T06:13:50.352Z,50
2016-06-10T06:14:49.760Z,50
2016-06-10T06:15:49.717Z,50
2016-06-10T06:16:49.767Z,55
2016-06-10T06:17:49.723Z,55
2016-06-10T06:18:49.726Z,55
2016-06-10T06:19:49.776Z,60
2016-06-10T06:20:50.842Z,60
2016-06-10T06:21:49.720Z,60
2016-06-10T06:22:50.504Z,65
2016-06-10T06:23:49.726Z,65
2016-06-10T06:24:50.619Z,65
2016-06-10T06:25:49.576Z,70
2016-06-10T06:26:50.516Z,75
2016-06-10T06:27:49.583Z,80
2016-06-10T06:28:49.742Z,85
2016-06-10T06:29:49.744Z,85
2016-06-10T06:30:49.731Z,85
2016-06-10T06:31:50.345Z,90
2016-06-10T06:32:49.769Z,90
2016-06-10T06:33:50.976Z,95
2016-06-10T06:34:49.604Z,100
2016-06-10T06:35:50.716Z,105
2016-06-10T06:36:49.750Z,115
2016-06-10T06:37:49.613Z,130
2016-06-10T06:38:49.772Z,140
2016-06-10T06:39:49.790Z,165
2016-06-10T06:40:49.623Z,160
2016-06-10T06:41:50.500Z,180
2016-06-10T06:42:49.784Z,175
2016-06-10T06:43:49.788Z,215
2016-06-10T06:44:50.494Z,195
2016-06-10T06:45:49.778Z,205
2016-06-10T06:46:50.594Z,230
2016-06-10T06:47:49.784Z,205
2016-06-10T06:48:49.631Z,250
2016-06-10T06:49:49.790Z,325
2016-06-10T06:50:49.684Z,910
2016-06-10T06:51:49.813Z,465
2016-06-10T06:52:49.815Z,605
2016-06-10T06:53:49.818Z,1360
2016-06-10T06:54:49.821Z,505
2016-06-10T06:55:50.964Z,655
2016-06-10T06:56:49.968Z,1030
2016-06-10T06:57:52.065Z,570
2016-06-10T06:58:49.849Z,920
2016-06-10T06:59:50.508Z,505
2016-06-10T07:00:49.684Z,560
2016-06-10T07:01:49.858Z,710
2016-06-10T07:02:49.846Z,735
2016-06-10T07:03:49.708Z,965
2016-06-10T07:04:49.712Z,825
2016-06-10T07:05:49.870Z,730
2016-06-10T07:06:49.873Z,950
2016-06-10T07:07:49.877Z,530
2016-06-10T07:08:50.396Z,460
2016-06-10T07:09:49.899Z,390
2016-06-10T07:10:50.964Z,355
2016-06-10T07:11:49.905Z,345
2016-06-10T07:12:49.908Z,395
2016-06-10T07:13:49.770Z,415
2016-06-10T07:14:49.992Z,410
2016-06-10T07:15:49.917Z,285
2016-06-10T07:16:49.983Z,220
2016-06-10T07:17:49.939Z,220
2016-06-10T07:18:49.957Z,225
2016-06-10T07:19:50.851Z,210
2016-06-10T07:20:50.121Z,225
2016-06-10T07:21:50.576Z,230
2016-06-10T07:22:49.969Z,285
2016-06-10T07:23:49.957Z,310
2016-06-10T07:24:50.429Z,235
2016-06-10T07:25:49.979Z,245
2016-06-10T07:26:49.826Z,255
2016-06-10T07:27:49.829Z,230
2016-06-10T07:28:49.832Z,260
2016-06-10T07:29:50.007Z,205
2016-06-10T07:30:50.511Z,230
2016-06-10T07:31:50.013Z,210
2016-06-10T07:32:51.125Z,210
2016-06-10T07:33:50.020Z,225
2016-06-10T07:34:50.022Z,205
2016-06-10T07:35:50.025Z,195
2016-06-10T07:36:50.028Z,200
2016-06-10T07:37:50.032Z,215
2016-06-10T07:38:50.051Z,210
2016-06-10T07:39:50.647Z,210
2016-06-10T07:40:50.072Z,205
2016-06-10T07:41:51.169Z,190
2016-06-10T07:42:50.078Z,190
2016-06-10T07:43:51.051Z,180
2016-06-10T07:44:50.069Z,175
2016-06-10T07:45:50.243Z,165
2016-06-10T07:46:50.090Z,155
2016-06-10T07:47:50.093Z,155
2016-06-10T07:48:50.097Z,155
2016-06-10T07:49:50.115Z,165
2016-06-10T07:50:50.119Z,165
2016-06-10T07:51:50.121Z,165
2016-06-10T07:52:50.811Z,175
2016-06-10T07:53:50.128Z,175
2016-06-10T07:54:51.256Z,180
2016-06-10T07:55:50.134Z,185
2016-06-10T07:56:50.981Z,185
2016-06-10T07:57:50.156Z,185
2016-06-10T07:58:50.158Z,185
2016-06-10T07:59:50.161Z,185
2016-06-10T08:00:50.165Z,185
2016-06-10T08:01:50.168Z,185
2016-06-10T08:02:50.170Z,185
2016-06-10T08:03:51.378Z,190
2016-06-10T08:04:50.193Z,190
2016-06-10T08:05:51.368Z,195
2016-06-10T08:06:50.215Z,195
2016-06-10T08:07:50.905Z,195
2016-06-10T08:08:50.189Z,200
2016-06-10T08:09:51.177Z,200
2016-06-10T08:10:50.227Z,200
2016-06-10T08:11:50.214Z,205
2016-06-10T08:12:50.077Z,205
2016-06-10T08:13:50.252Z,205
2016-06-10T08:14:50.848Z,215
2016-06-10T08:15:50.243Z,210
2016-06-10T08:16:51.402Z,210
2016-06-10T08:17:50.107Z,200
2016-06-10T08:18:51.361Z,200
2016-06-10T08:19:50.270Z,200
2016-06-10T08:20:50.117Z,200
2016-06-10T08:21:50.433Z,200
2016-06-10T08:22:50.295Z,200
2016-06-10T08:23:50.298Z,200
2016-06-10T08:24:50.051Z,205
2016-06-10T08:25:50.304Z,210
2016-06-10T08:26:50.166Z,200
2016-06-10T08:27:51.732Z,200
2016-06-10T08:28:50.329Z,185
2016-06-10T08:29:51.144Z,180
2016-06-10T08:30:50.335Z,180
2016-06-10T08:31:50.464Z,175
2016-06-10T08:32:50.341Z,180
2016-06-10T08:33:50.359Z,175
2016-06-10T08:34:50.362Z,175
2016-06-10T08:35:50.382Z,175
2016-06-10T08:36:50.385Z,180
2016-06-10T08:37:50.216Z,175
2016-06-10T08:38:50.375Z,175
2016-06-10T08:39:50.238Z,170
2016-06-10T08:40:51.506Z,170
2016-06-10T08:41:51.260Z,170
2016-06-10T08:42:51.325Z,170
2016-06-10T08:43:50.421Z,170
2016-06-10T08:44:50.409Z,170
2016-06-10T08:45:50.443Z,160
2016-06-10T08:46:50.447Z,155
2016-06-10T08:47:50.450Z,145
2016-06-10T08:48:50.437Z,140
2016-06-10T08:49:50.815Z,130
2016-06-10T08:50:50.459Z,125
2016-06-10T08:51:51.603Z,115
2016-06-10T08:52:50.496Z,105
2016-06-10T08:53:50.531Z,100
2016-06-10T08:54:50.488Z,100
2016-06-10T08:55:50.506Z,100
2016-06-10T08:56:50.446Z,95
2016-06-10T08:57:50.356Z,95
2016-06-10T08:58:50.515Z,90
2016-06-10T08:59:50.518Z,95
2016-06-10T09:00:51.021Z,95
2016-06-10T09:01:50.415Z,95
2016-06-10T09:02:51.621Z,95
2016-06-10T09:03:50.390Z,95
2016-06-10T09:04:51.049Z,95
2016-06-10T09:05:50.553Z,95
2016-06-10T09:06:50.572Z,95
2016-06-10T09:07:50.574Z,90
2016-06-10T09:08:50.592Z,85
2016-06-10T09:10:50.598Z,90
2016-06-10T09:11:51.742Z,90
2016-06-10T09:12:50.870Z,85
2016-06-10T09:13:51.514Z,85
2016-06-10T09:14:50.596Z,85
2016-06-10T09:15:51.676Z,85
2016-06-10T09:16:50.477Z,85
2016-06-10T09:17:50.620Z,85
2016-06-10T09:18:50.686Z,85
2016-06-10T09:19:50.642Z,85
2016-06-10T09:20:50.645Z,85
2016-06-10T09:21:50.648Z,85
2016-06-10T09:22:50.713Z,85
2016-06-10T09:23:50.717Z,85
2016-06-10T09:24:51.423Z,85
2016-06-10T09:25:50.676Z,85
2016-06-10T09:26:52.695Z,85
2016-06-10T09:27:51.823Z,85
2016-06-10T09:28:50.716Z,80
2016-06-10T09:29:50.407Z,80
2016-06-10T09:30:50.707Z,80
2016-06-10T09:31:50.413Z,80
2016-06-10T09:32:50.730Z,80
2016-06-10T09:33:50.732Z,80
2016-06-10T09:34:50.594Z,80
2016-06-10T09:35:51.706Z,80
2016-06-10T09:36:50.756Z,80
2016-06-10T09:37:51.900Z,80
2016-06-10T09:38:50.762Z,80
2016-06-10T09:39:51.673Z,80
2016-06-10T09:40:50.769Z,80
2016-06-10T09:41:51.429Z,80
2016-06-10T09:42:50.541Z,80
2016-06-10T09:43:50.794Z,80
2016-06-10T09:44:50.813Z,80
2016-06-10T09:45:50.644Z,80
2016-06-10T09:46:50.803Z,80
2016-06-10T09:47:50.853Z,80
2016-06-10T09:48:51.451Z,80
2016-06-10T09:49:50.813Z,80
2016-06-10T09:50:51.956Z,80
2016-06-10T09:51:50.835Z,85
2016-06-10T09:52:50.838Z,85
2016-06-10T09:53:50.856Z,85
2016-06-10T09:54:50.562Z,85
2016-06-10T09:55:50.706Z,85
2016-06-10T09:56:50.881Z,85
2016-06-10T09:57:51.243Z,85
2016-06-10T09:58:50.887Z,90
2016-06-10T09:59:51.546Z,90
2016-06-10T10:00:50.893Z,85
2016-06-10T10:01:52.068Z,85
2016-06-10T10:02:50.899Z,85
2016-06-10T10:03:50.747Z,85
2016-06-10T10:04:50.921Z,85
2016-06-10T10:05:50.924Z,85
2016-06-10T10:06:50.927Z,85
2016-06-10T10:07:50.930Z,85
2016-06-10T10:08:50.793Z,80
2016-06-10T10:09:50.952Z,75
2016-06-10T10:10:52.533Z,80
2016-06-10T10:11:52.271Z,75
2016-06-10T10:12:51.852Z,80
2016-06-10T10:13:50.995Z,80
2016-06-10T10:14:50.826Z,85
2016-06-10T10:15:50.987Z,80
2016-06-10T10:16:50.848Z,85
2016-06-10T10:17:50.851Z,85
2016-06-10T10:18:50.854Z,85
2016-06-10T10:19:50.858Z,80
2016-06-10T10:20:51.017Z,85
2016-06-10T10:21:51.722Z,85
2016-06-10T10:22:51.148Z,85
2016-06-10T10:23:52.104Z,85
2016-06-10T10:24:51.045Z,85
2016-06-10T10:25:51.048Z,85
2016-06-10T10:26:51.504Z,90
2016-06-10T10:27:51.773Z,85
2016-06-10T10:28:51.073Z,85
2016-06-10T10:29:50.919Z,80
2016-06-10T10:30:51.079Z,85
2016-06-10T10:31:51.082Z,80
2016-06-10T10:32:52.085Z,85
2016-06-10T10:33:51.089Z,80
2016-06-10T10:34:52.013Z,80
2016-06-10T10:35:50.954Z,75
2016-06-10T10:36:51.207Z,75
2016-06-10T10:37:51.132Z,75
2016-06-10T10:38:51.119Z,80
2016-06-10T10:39:50.982Z,80
2016-06-10T10:40:51.142Z,80
2016-06-10T10:41:51.004Z,80
2016-06-10T10:42:51.804Z,80
2016-06-10T10:43:51.650Z,75
2016-06-10T10:44:51.201Z,75
2016-06-10T10:45:52.204Z,75
2016-06-10T10:46:51.268Z,75
2016-06-10T10:48:05.724Z,75
2016-06-10T10:48:51.024Z,75
2016-06-10T10:49:51.044Z,75
2016-06-10T10:50:51.187Z,75
2016-06-10T10:51:51.190Z,80
2016-06-10T10:52:51.053Z,75
2016-06-10T10:53:51.196Z,75
2016-06-10T10:54:52.199Z,75
2016-06-10T10:55:50.907Z,75
2016-06-10T10:56:52.019Z,75
2016-06-10T10:57:51.272Z,75
2016-06-10T10:58:52.041Z,75
2016-06-10T10:59:51.277Z,75
2016-06-10T11:00:51.264Z,75
2016-06-10T11:01:51.252Z,75
2016-06-10T11:02:51.271Z,75
2016-06-10T11:03:51.274Z,75
2016-06-10T11:04:50.965Z,75
2016-06-10T11:05:51.124Z,75
2016-06-10T11:06:51.283Z,75
2016-06-10T11:07:52.427Z,75
2016-06-10T11:08:51.305Z,75
2016-06-10T11:10:51.312Z,70
2016-06-10T11:11:52.330Z,70
2016-06-10T11:12:52.959Z,75
2016-06-10T11:13:51.179Z,75
2016-06-10T11:14:51.339Z,75
2016-06-10T11:15:51.343Z,75
2016-06-10T11:16:51.346Z,75
2016-06-10T11:17:51.364Z,75
2016-06-10T11:18:51.914Z,70
2016-06-10T11:19:51.370Z,70
2016-06-10T11:20:52.124Z,75
2016-06-10T11:21:51.377Z,75
2016-06-10T11:22:51.785Z,75
2016-06-10T11:23:51.446Z,75
2016-06-10T11:24:51.338Z,70
2016-06-10T11:25:51.467Z,70
2016-06-10T11:26:51.408Z,65
2016-06-10T11:27:51.286Z,75
2016-06-10T11:28:51.273Z,75
2016-06-10T11:29:52.400Z,75
2016-06-10T11:30:51.435Z,75
2016-06-10T11:31:53.063Z,75
2016-06-10T11:32:51.457Z,75
2016-06-10T11:33:52.319Z,75
2016-06-10T11:34:51.307Z,75
2016-06-10T11:35:51.466Z,70
2016-06-10T11:36:51.469Z,70
2016-06-10T11:37:51.331Z,70
2016-06-10T11:38:51.492Z,70
2016-06-10T11:39:51.495Z,70
2016-06-10T11:40:51.497Z,65
2016-06-10T11:41:51.500Z,65
2016-06-10T11:42:53.426Z,65
2016-06-10T11:43:51.553Z,65
2016-06-10T11:44:52.689Z,65
2016-06-10T11:45:51.637Z,65
2016-06-10T11:46:51.664Z,65
2016-06-10T11:47:51.722Z,65
2016-06-10T11:48:51.754Z,65
2016-06-10T11:49:51.772Z,60
2016-06-10T11:50:51.789Z,65
2016-06-10T11:51:51.807Z,65
2016-06-10T11:52:51.840Z,65
2016-06-10T11:53:53.462Z,65
2016-06-10T11:54:51.861Z,65
2016-06-10T11:55:52.947Z,65
2016-06-10T11:56:51.893Z,60
2016-06-10T11:57:52.276Z,60
2016-06-10T11:58:51.752Z,65
2016-06-10T11:59:51.912Z,60
2016-06-10T12:00:51.917Z,60
2016-06-10T12:01:51.923Z,60
2016-06-10T12:02:51.928Z,60
2016-06-10T12:03:51.948Z,60
2016-06-10T12:04:52.607Z,60
2016-06-10T12:05:51.955Z,55
2016-06-10T12:06:53.098Z,55
2016-06-10T12:07:51.962Z,50
2016-06-10T12:08:51.980Z,50
2016-06-10T12:10:51.987Z,55
2016-06-10T12:11:51.991Z,55
2016-06-10T12:12:52.198Z,50
2016-06-10T12:13:52.748Z,55
2016-06-10T12:14:52.032Z,55
2016-06-10T12:15:53.020Z,55
2016-06-10T12:16:52.022Z,55
2016-06-10T12:17:52.667Z,55
2016-06-10T12:18:52.029Z,55
2016-06-10T12:19:52.032Z,55
2016-06-10T12:20:52.051Z,55
2016-06-10T12:21:52.054Z,55
2016-06-10T12:22:51.900Z,60
2016-06-10T12:23:52.076Z,60
2016-06-10T12:24:52.142Z,60
2016-06-10T12:25:52.159Z,55
2016-06-10T12:26:52.506Z,55
2016-06-10T12:27:52.120Z,55
2016-06-10T12:28:53.090Z,55
2016-06-10T12:29:52.126Z,55
2016-06-10T12:30:52.222Z,55
2016-06-10T12:31:51.974Z,55
2016-06-10T12:32:51.977Z,55
2016-06-10T12:33:52.138Z,50
2016-06-10T12:34:52.125Z,55
2016-06-10T12:35:51.987Z,55
2016-06-10T12:36:51.990Z,55
2016-06-10T12:37:52.806Z,55
2016-06-10T12:38:51.841Z,55
2016-06-10T12:39:53.390Z,55
2016-06-10T12:40:52.002Z,55
2016-06-10T12:41:52.615Z,55
2016-06-10T12:42:53.306Z,55
2016-06-10T12:43:52.262Z,55
2016-06-10T12:44:52.203Z,55
2016-06-10T12:45:52.050Z,55
2016-06-10T12:46:52.209Z,55
2016-06-10T12:47:52.227Z,55
2016-06-10T12:48:52.230Z,50
2016-06-10T12:49:52.265Z,50
2016-06-10T12:50:52.769Z,50
2016-06-10T12:51:52.224Z,50
2016-06-10T12:52:53.368Z,55
2016-06-10T12:53:52.261Z,50
2016-06-10T12:54:52.655Z,50
2016-06-10T12:55:52.267Z,50
2016-06-10T12:56:52.130Z,50
2016-06-10T12:57:52.899Z,50
2016-06-10T12:58:52.793Z,50
2016-06-10T12:59:52.280Z,50
2016-06-10T13:00:52.141Z,50
2016-06-10T13:01:53.317Z,50
2016-06-10T13:02:52.305Z,50
2016-06-10T13:03:52.511Z,50
2016-06-10T13:04:52.311Z,50
2016-06-10T13:05:52.986Z,50
2016-06-10T13:06:52.333Z,50
2016-06-10T13:07:52.320Z,50
2016-06-10T13:08:52.339Z,50
2016-06-10T13:10:52.344Z,50
2016-06-10T13:11:52.208Z,50
2016-06-10T13:12:53.491Z,50
2016-06-10T13:13:52.089Z,50
2016-06-10T13:14:53.092Z,45
2016-06-10T13:15:52.376Z,45
2016-06-10T13:16:53.191Z,40
2016-06-10T13:17:52.382Z,40
2016-06-10T13:18:52.276Z,45
2016-06-10T13:19:52.247Z,45
2016-06-10T13:20:52.407Z,45
2016-06-10T13:21:52.426Z,45
2016-06-10T13:22:52.429Z,45
2016-06-10T13:23:53.073Z,45
2016-06-10T13:24:52.279Z,45
2016-06-10T13:25:53.657Z,45
2016-06-10T13:26:52.519Z,45
2016-06-10T13:27:55.007Z,45
2016-06-10T13:28:53.510Z,45
2016-06-10T13:29:52.310Z,45
2016-06-10T13:30:52.469Z,45
2016-06-10T13:31:52.487Z,45
2016-06-10T13:32:52.476Z,45
2016-06-10T13:33:52.494Z,45
2016-06-10T13:34:52.497Z,45
2016-06-10T13:35:52.499Z,45
2016-06-10T13:36:53.847Z,45
2016-06-10T13:37:52.522Z,45
2016-06-10T13:38:53.213Z,45
2016-06-10T13:39:52.684Z,45
2016-06-10T13:40:53.640Z,45
2016-06-10T13:41:52.659Z,45
2016-06-10T13:42:53.412Z,45
2016-06-10T13:43:52.399Z,45
2016-06-10T13:44:52.559Z,45
2016-06-10T13:45:52.562Z,45
2016-06-10T13:46:53.847Z,45
2016-06-10T13:47:53.380Z,45
2016-06-10T13:48:52.571Z,45
2016-06-10T13:49:54.558Z,45
2016-06-10T13:50:52.608Z,45
2016-06-10T13:51:53.705Z,45
2016-06-10T13:52:52.615Z,45
2016-06-10T13:53:52.618Z,45
2016-06-10T13:54:52.621Z,45
2016-06-10T13:55:52.624Z,45
2016-06-10T13:56:52.643Z,45
2016-06-10T13:57:53.052Z,45
2016-06-10T13:58:52.774Z,45
2016-06-10T13:59:52.652Z,45
2016-06-10T14:00:54.249Z,45
2016-06-10T14:01:52.674Z,45
2016-06-10T14:02:53.521Z,45
2016-06-10T14:03:52.680Z,45
2016-06-10T14:04:52.543Z,45
2016-06-10T14:05:52.717Z,45
2016-06-10T14:06:52.705Z,45
2016-06-10T14:07:52.692Z,45
2016-06-10T14:08:52.711Z,40
2016-06-10T14:09:52.729Z,40
2016-06-10T14:10:52.717Z,40
2016-06-10T14:11:53.267Z,40
2016-06-10T14:12:52.723Z,40
2016-06-10T14:13:56.273Z,40
2016-06-10T14:14:52.744Z,40
2016-06-10T14:15:52.763Z,40
2016-06-10T14:16:52.766Z,40
2016-06-10T14:17:52.769Z,40
2016-06-10T14:18:52.616Z,40
2016-06-10T14:19:52.776Z,45
2016-06-10T14:20:52.795Z,45
2016-06-10T14:21:52.798Z,45